sensor_id;sensor_type;location;lat;lon;timestamp;P1;durP1;ratioP1;P2;durP2;ratioP2
25988;SDS011;13778;48.236;9.894;2022-08-25T00:00:36;7.80;;;4.70;;
25988;SDS011;13778;48.236;9.894;2022-08-25T00:06:17;7.60;;;5.40;;
25988;SDS011;13778;48.236;9.894;2022-08-25T00:09:08;6.75;;;5.43;;
25988;SDS011;13778;48.236;9.894;2022-08-25T00:11:59;9.47;;;5.50;;
25988;SDS011;13778;48.236;9.894;2022-08-25T00:14:50;6.85;;;6.05;;
25988;SDS011;13778;48.236;9.894;2022-08-25T00:17:41;7.03;;;6.30;;
25988;SDS011;13778;48.236;9.894;2022-08-25T00:20:32;6.78;;;5.80;;
25988;SDS011;13778;48.236;9.894;2022-08-25T00:23:23;6.95;;;5.85;;
25988;SDS011;13778;48.236;9.894;2022-08-25T00:26:14;6.93;;;5.75;;
25988;SDS011;13778;48.236;9.894;2022-08-25T00:29:05;6.97;;;6.28;;
25988;SDS011;13778;48.236;9.894;2022-08-25T00:31:55;7.32;;;6.05;;
25988;SDS011;13778;48.236;9.894;2022-08-25T00:34:47;7.50;;;6.55;;
25988;SDS011;13778;48.236;9.894;2022-08-25T00:37:37;8.32;;;6.25;;
25988;SDS011;13778;48.236;9.894;2022-08-25T00:40:28;7.63;;;6.85;;
25988;SDS011;13778;48.236;9.894;2022-08-25T00:43:19;9.68;;;6.28;;
25988;SDS011;13778;48.236;9.894;2022-08-25T00:46:10;7.85;;;6.57;;
25988;SDS011;13778;48.236;9.894;2022-08-25T00:49:01;7.10;;;6.40;;
25988;SDS011;13778;48.236;9.894;2022-08-25T00:51:54;8.52;;;7.20;;
25988;SDS011;13778;48.236;9.894;2022-08-25T00:54:48;8.73;;;6.90;;
25988;SDS011;13778;48.236;9.894;2022-08-25T00:57:41;8.35;;;6.95;;
25988;SDS011;13778;48.236;9.894;2022-08-25T01:00:34;11.05;;;7.80;;
25988;SDS011;13778;48.236;9.894;2022-08-25T01:03:25;7.55;;;6.85;;
25988;SDS011;13778;48.236;9.894;2022-08-25T01:06:16;10.82;;;6.40;;
25988;SDS011;13778;48.236;9.894;2022-08-25T01:09:08;7.40;;;6.55;;
25988;SDS011;13778;48.236;9.894;2022-08-25T01:11:58;10.85;;;7.43;;
25988;SDS011;13778;48.236;9.894;2022-08-25T01:14:48;9.15;;;6.72;;
25988;SDS011;13778;48.236;9.894;2022-08-25T01:17:44;10.43;;;7.68;;
25988;SDS011;13778;48.236;9.894;2022-08-25T01:20:35;9.80;;;7.07;;
25988;SDS011;13778;48.236;9.894;2022-08-25T01:23:27;11.05;;;7.20;;
25988;SDS011;13778;48.236;9.894;2022-08-25T01:29:08;8.23;;;7.30;;
25988;SDS011;13778;48.236;9.894;2022-08-25T01:32:13;12.02;;;8.15;;
25988;SDS011;13778;48.236;9.894;2022-08-25T01:35:04;9.73;;;7.72;;
25988;SDS011;13778;48.236;9.894;2022-08-25T01:37:54;13.73;;;8.38;;
25988;SDS011;13778;48.236;9.894;2022-08-25T01:40:46;12.02;;;8.52;;
25988;SDS011;13778;48.236;9.894;2022-08-25T01:46:27;13.95;;;9.25;;
25988;SDS011;13778;48.236;9.894;2022-08-25T01:49:17;13.20;;;9.50;;
25988;SDS011;13778;48.236;9.894;2022-08-25T01:52:10;12.80;;;9.07;;
25988;SDS011;13778;48.236;9.894;2022-08-25T01:55:01;11.90;;;9.25;;
25988;SDS011;13778;48.236;9.894;2022-08-25T01:57:52;13.25;;;9.32;;
25988;SDS011;13778;48.236;9.894;2022-08-25T02:00:43;16.60;;;9.75;;
25988;SDS011;13778;48.236;9.894;2022-08-25T02:03:35;14.45;;;9.80;;
25988;SDS011;13778;48.236;9.894;2022-08-25T02:06:27;10.88;;;9.77;;
25988;SDS011;13778;48.236;9.894;2022-08-25T02:09:20;11.88;;;9.68;;
25988;SDS011;13778;48.236;9.894;2022-08-25T02:12:10;17.55;;;10.40;;
25988;SDS011;13778;48.236;9.894;2022-08-25T02:15:02;10.30;;;8.70;;
25988;SDS011;13778;48.236;9.894;2022-08-25T02:17:54;12.05;;;9.70;;
25988;SDS011;13778;48.236;9.894;2022-08-25T02:20:45;15.20;;;10.07;;
25988;SDS011;13778;48.236;9.894;2022-08-25T02:23:35;15.18;;;9.40;;
25988;SDS011;13778;48.236;9.894;2022-08-25T02:26:26;13.68;;;10.60;;
25988;SDS011;13778;48.236;9.894;2022-08-25T02:29:16;13.15;;;11.15;;
25988;SDS011;13778;48.236;9.894;2022-08-25T02:32:08;11.95;;;9.73;;
25988;SDS011;13778;48.236;9.894;2022-08-25T02:34:59;11.80;;;10.35;;
25988;SDS011;13778;48.236;9.894;2022-08-25T02:37:50;13.63;;;11.45;;
25988;SDS011;13778;48.236;9.894;2022-08-25T02:40:40;13.02;;;11.13;;
25988;SDS011;13778;48.236;9.894;2022-08-25T02:43:31;15.82;;;12.27;;
25988;SDS011;13778;48.236;9.894;2022-08-25T02:46:22;16.92;;;12.55;;
25988;SDS011;13778;48.236;9.894;2022-08-25T02:49:14;19.30;;;13.47;;
25988;SDS011;13778;48.236;9.894;2022-08-25T02:54:54;15.18;;;11.82;;
25988;SDS011;13778;48.236;9.894;2022-08-25T02:57:45;17.23;;;12.63;;
25988;SDS011;13778;48.236;9.894;2022-08-25T03:00:36;16.90;;;13.23;;
25988;SDS011;13778;48.236;9.894;2022-08-25T03:03:26;16.60;;;11.77;;
25988;SDS011;13778;48.236;9.894;2022-08-25T03:06:19;14.20;;;10.93;;
25988;SDS011;13778;48.236;9.894;2022-08-25T03:09:11;15.57;;;12.00;;
25988;SDS011;13778;48.236;9.894;2022-08-25T03:12:02;15.93;;;13.25;;
25988;SDS011;13778;48.236;9.894;2022-08-25T03:14:53;14.93;;;12.47;;
25988;SDS011;13778;48.236;9.894;2022-08-25T03:17:43;15.20;;;12.13;;
25988;SDS011;13778;48.236;9.894;2022-08-25T03:20:34;16.00;;;12.30;;
25988;SDS011;13778;48.236;9.894;2022-08-25T03:23:26;17.95;;;13.57;;
25988;SDS011;13778;48.236;9.894;2022-08-25T03:29:25;15.23;;;12.93;;
25988;SDS011;13778;48.236;9.894;2022-08-25T03:32:16;17.42;;;13.52;;
25988;SDS011;13778;48.236;9.894;2022-08-25T03:35:07;18.35;;;13.75;;
25988;SDS011;13778;48.236;9.894;2022-08-25T03:37:57;19.83;;;14.25;;
25988;SDS011;13778;48.236;9.894;2022-08-25T03:40:49;18.80;;;14.18;;
25988;SDS011;13778;48.236;9.894;2022-08-25T03:46:30;18.00;;;14.23;;
25988;SDS011;13778;48.236;9.894;2022-08-25T03:49:22;16.35;;;13.30;;
25988;SDS011;13778;48.236;9.894;2022-08-25T03:52:12;14.87;;;12.80;;
25988;SDS011;13778;48.236;9.894;2022-08-25T03:55:03;16.92;;;14.35;;
25988;SDS011;13778;48.236;9.894;2022-08-25T03:57:55;20.05;;;14.98;;
25988;SDS011;13778;48.236;9.894;2022-08-25T04:00:46;21.77;;;15.20;;
25988;SDS011;13778;48.236;9.894;2022-08-25T04:03:36;21.50;;;14.85;;
25988;SDS011;13778;48.236;9.894;2022-08-25T04:06:27;19.58;;;15.60;;
25988;SDS011;13778;48.236;9.894;2022-08-25T04:09:17;18.58;;;15.38;;
25988;SDS011;13778;48.236;9.894;2022-08-25T04:12:08;18.85;;;15.10;;
25988;SDS011;13778;48.236;9.894;2022-08-25T04:15:00;20.33;;;15.32;;
25988;SDS011;13778;48.236;9.894;2022-08-25T04:20:40;23.83;;;16.55;;
25988;SDS011;13778;48.236;9.894;2022-08-25T04:23:31;23.83;;;17.17;;
25988;SDS011;13778;48.236;9.894;2022-08-25T04:26:23;18.92;;;15.05;;
25988;SDS011;13778;48.236;9.894;2022-08-25T04:29:14;25.27;;;17.33;;
25988;SDS011;13778;48.236;9.894;2022-08-25T04:32:06;20.02;;;16.48;;
25988;SDS011;13778;48.236;9.894;2022-08-25T04:34:57;23.52;;;17.70;;
25988;SDS011;13778;48.236;9.894;2022-08-25T04:37:47;18.30;;;15.57;;
25988;SDS011;13778;48.236;9.894;2022-08-25T04:40:38;19.60;;;15.23;;
25988;SDS011;13778;48.236;9.894;2022-08-25T04:43:29;19.80;;;16.02;;
25988;SDS011;13778;48.236;9.894;2022-08-25T04:46:20;21.70;;;16.10;;
25988;SDS011;13778;48.236;9.894;2022-08-25T04:49:12;23.38;;;16.98;;
25988;SDS011;13778;48.236;9.894;2022-08-25T04:52:03;21.48;;;17.00;;
25988;SDS011;13778;48.236;9.894;2022-08-25T04:54:53;20.30;;;16.35;;
25988;SDS011;13778;48.236;9.894;2022-08-25T04:57:44;19.17;;;15.93;;
25988;SDS011;13778;48.236;9.894;2022-08-25T05:00:35;19.73;;;16.10;;
25988;SDS011;13778;48.236;9.894;2022-08-25T05:03:26;23.35;;;18.33;;
25988;SDS011;13778;48.236;9.894;2022-08-25T05:06:18;22.67;;;17.30;;
25988;SDS011;13778;48.236;9.894;2022-08-25T05:09:08;21.48;;;17.08;;
25988;SDS011;13778;48.236;9.894;2022-08-25T05:11:59;23.20;;;18.30;;
25988;SDS011;13778;48.236;9.894;2022-08-25T05:14:50;27.53;;;19.23;;
25988;SDS011;13778;48.236;9.894;2022-08-25T05:17:41;24.02;;;18.05;;
25988;SDS011;13778;48.236;9.894;2022-08-25T05:20:31;22.27;;;17.67;;
25988;SDS011;13778;48.236;9.894;2022-08-25T05:23:27;22.48;;;18.15;;
25988;SDS011;13778;48.236;9.894;2022-08-25T05:26:18;27.50;;;19.75;;
25988;SDS011;13778;48.236;9.894;2022-08-25T05:29:09;23.60;;;18.20;;
25988;SDS011;13778;48.236;9.894;2022-08-25T05:31:59;24.10;;;19.05;;
25988;SDS011;13778;48.236;9.894;2022-08-25T05:34:50;27.30;;;19.08;;
25988;SDS011;13778;48.236;9.894;2022-08-25T05:37:40;28.30;;;18.90;;
25988;SDS011;13778;48.236;9.894;2022-08-25T05:40:32;26.23;;;19.75;;
25988;SDS011;13778;48.236;9.894;2022-08-25T05:43:23;26.13;;;18.90;;
25988;SDS011;13778;48.236;9.894;2022-08-25T05:46:16;25.55;;;18.95;;
25988;SDS011;13778;48.236;9.894;2022-08-25T05:49:07;27.85;;;19.23;;
25988;SDS011;13778;48.236;9.894;2022-08-25T05:51:58;22.98;;;18.83;;
25988;SDS011;13778;48.236;9.894;2022-08-25T05:54:48;24.73;;;19.20;;
25988;SDS011;13778;48.236;9.894;2022-08-25T05:57:40;24.33;;;17.98;;
25988;SDS011;13778;48.236;9.894;2022-08-25T06:00:31;24.98;;;19.15;;
25988;SDS011;13778;48.236;9.894;2022-08-25T06:03:21;25.45;;;19.00;;
25988;SDS011;13778;48.236;9.894;2022-08-25T06:06:10;20.92;;;17.23;;
25988;SDS011;13778;48.236;9.894;2022-08-25T06:09:02;24.48;;;17.02;;
25988;SDS011;13778;48.236;9.894;2022-08-25T06:11:54;21.70;;;17.00;;
25988;SDS011;13778;48.236;9.894;2022-08-25T06:14:46;19.95;;;16.58;;
25988;SDS011;13778;48.236;9.894;2022-08-25T06:17:37;22.42;;;17.13;;
25988;SDS011;13778;48.236;9.894;2022-08-25T06:20:29;24.45;;;18.13;;
25988;SDS011;13778;48.236;9.894;2022-08-25T06:23:19;23.40;;;16.83;;
25988;SDS011;13778;48.236;9.894;2022-08-25T06:26:11;24.38;;;16.92;;
25988;SDS011;13778;48.236;9.894;2022-08-25T06:29:01;24.77;;;17.10;;
25988;SDS011;13778;48.236;9.894;2022-08-25T06:31:53;20.08;;;16.83;;
25988;SDS011;13778;48.236;9.894;2022-08-25T06:34:43;19.10;;;15.45;;
25988;SDS011;13778;48.236;9.894;2022-08-25T06:37:34;21.33;;;14.90;;
25988;SDS011;13778;48.236;9.894;2022-08-25T06:40:25;21.23;;;15.67;;
25988;SDS011;13778;48.236;9.894;2022-08-25T06:43:15;20.08;;;16.83;;
25988;SDS011;13778;48.236;9.894;2022-08-25T06:46:07;20.42;;;16.25;;
25988;SDS011;13778;48.236;9.894;2022-08-25T06:48:59;21.08;;;15.77;;
25988;SDS011;13778;48.236;9.894;2022-08-25T06:54:39;16.88;;;12.90;;
25988;SDS011;13778;48.236;9.894;2022-08-25T06:57:30;17.50;;;13.93;;
25988;SDS011;13778;48.236;9.894;2022-08-25T07:00:23;17.67;;;13.07;;
25988;SDS011;13778;48.236;9.894;2022-08-25T07:03:14;16.80;;;13.07;;
25988;SDS011;13778;48.236;9.894;2022-08-25T07:06:06;17.23;;;14.02;;
25988;SDS011;13778;48.236;9.894;2022-08-25T07:08:57;14.27;;;12.75;;
25988;SDS011;13778;48.236;9.894;2022-08-25T07:11:47;16.98;;;13.02;;
25988;SDS011;13778;48.236;9.894;2022-08-25T07:14:38;17.38;;;13.60;;
25988;SDS011;13778;48.236;9.894;2022-08-25T07:17:28;17.58;;;12.32;;
25988;SDS011;13778;48.236;9.894;2022-08-25T07:20:18;14.48;;;12.77;;
25988;SDS011;13778;48.236;9.894;2022-08-25T07:23:10;16.40;;;12.85;;
25988;SDS011;13778;48.236;9.894;2022-08-25T07:28:51;14.93;;;11.82;;
25988;SDS011;13778;48.236;9.894;2022-08-25T07:31:41;14.60;;;12.45;;
25988;SDS011;13778;48.236;9.894;2022-08-25T07:34:32;13.32;;;11.85;;
25988;SDS011;13778;48.236;9.894;2022-08-25T07:37:40;14.57;;;12.70;;
25988;SDS011;13778;48.236;9.894;2022-08-25T07:40:34;13.07;;;11.32;;
25988;SDS011;13778;48.236;9.894;2022-08-25T07:43:25;14.98;;;11.05;;
25988;SDS011;13778;48.236;9.894;2022-08-25T07:46:15;18.17;;;11.80;;
25988;SDS011;13778;48.236;9.894;2022-08-25T07:49:06;12.88;;;11.27;;
25988;SDS011;13778;48.236;9.894;2022-08-25T07:51:56;14.07;;;11.27;;
25988;SDS011;13778;48.236;9.894;2022-08-25T07:54:46;12.88;;;10.30;;
25988;SDS011;13778;48.236;9.894;2022-08-25T07:57:39;13.20;;;10.93;;
25988;SDS011;13778;48.236;9.894;2022-08-25T08:00:30;12.60;;;9.25;;
25988;SDS011;13778;48.236;9.894;2022-08-25T08:03:22;11.57;;;9.50;;
25988;SDS011;13778;48.236;9.894;2022-08-25T08:06:13;10.57;;;9.45;;
25988;SDS011;13778;48.236;9.894;2022-08-25T08:09:04;13.48;;;10.23;;
25988;SDS011;13778;48.236;9.894;2022-08-25T08:11:55;7.60;;;6.82;;
25988;SDS011;13778;48.236;9.894;2022-08-25T08:14:47;10.73;;;7.88;;
25988;SDS011;13778;48.236;9.894;2022-08-25T08:17:37;9.02;;;7.60;;
25988;SDS011;13778;48.236;9.894;2022-08-25T08:20:28;8.52;;;7.57;;
25988;SDS011;13778;48.236;9.894;2022-08-25T08:26:15;8.50;;;6.10;;
25988;SDS011;13778;48.236;9.894;2022-08-25T08:29:06;6.75;;;6.05;;
25988;SDS011;13778;48.236;9.894;2022-08-25T08:31:58;8.30;;;7.38;;
25988;SDS011;13778;48.236;9.894;2022-08-25T08:34:48;8.18;;;6.97;;
25988;SDS011;13778;48.236;9.894;2022-08-25T08:37:38;8.55;;;7.13;;
25988;SDS011;13778;48.236;9.894;2022-08-25T08:40:30;7.88;;;6.70;;
25988;SDS011;13778;48.236;9.894;2022-08-25T08:43:23;8.43;;;7.50;;
25988;SDS011;13778;48.236;9.894;2022-08-25T08:46:14;9.13;;;7.93;;
25988;SDS011;13778;48.236;9.894;2022-08-25T08:49:08;6.82;;;5.90;;
25988;SDS011;13778;48.236;9.894;2022-08-25T08:52:00;10.75;;;6.50;;
25988;SDS011;13778;48.236;9.894;2022-08-25T08:54:53;8.50;;;7.30;;
25988;SDS011;13778;48.236;9.894;2022-08-25T08:57:46;8.18;;;7.05;;
25988;SDS011;13778;48.236;9.894;2022-08-25T09:00:39;10.93;;;7.47;;
25988;SDS011;13778;48.236;9.894;2022-08-25T09:03:32;8.55;;;7.22;;
25988;SDS011;13778;48.236;9.894;2022-08-25T09:06:26;11.85;;;8.50;;
25988;SDS011;13778;48.236;9.894;2022-08-25T09:09:19;8.68;;;7.80;;
25988;SDS011;13778;48.236;9.894;2022-08-25T09:12:12;9.77;;;8.77;;
25988;SDS011;13778;48.236;9.894;2022-08-25T09:15:06;7.72;;;6.53;;
25988;SDS011;13778;48.236;9.894;2022-08-25T09:18:00;12.05;;;7.70;;
25988;SDS011;13778;48.236;9.894;2022-08-25T09:20:56;8.02;;;7.07;;
25988;SDS011;13778;48.236;9.894;2022-08-25T09:24:01;9.95;;;8.15;;
25988;SDS011;13778;48.236;9.894;2022-08-25T09:26:59;7.68;;;6.97;;
25988;SDS011;13778;48.236;9.894;2022-08-25T09:29:56;8.00;;;7.00;;
25988;SDS011;13778;48.236;9.894;2022-08-25T09:32:49;8.43;;;7.63;;
25988;SDS011;13778;48.236;9.894;2022-08-25T09:35:41;8.73;;;6.05;;
25988;SDS011;13778;48.236;9.894;2022-08-25T09:38:32;8.68;;;5.75;;
25988;SDS011;13778;48.236;9.894;2022-08-25T09:41:41;7.60;;;5.72;;
25988;SDS011;13778;48.236;9.894;2022-08-25T09:44:32;6.32;;;5.68;;
25988;SDS011;13778;48.236;9.894;2022-08-25T09:47:24;9.25;;;7.20;;
25988;SDS011;13778;48.236;9.894;2022-08-25T09:53:10;6.68;;;6.00;;
25988;SDS011;13778;48.236;9.894;2022-08-25T09:56:02;7.60;;;6.07;;
25988;SDS011;13778;48.236;9.894;2022-08-25T09:58:56;6.78;;;6.18;;
25988;SDS011;13778;48.236;9.894;2022-08-25T10:02:19;8.50;;;5.65;;
25988;SDS011;13778;48.236;9.894;2022-08-25T10:05:18;6.53;;;5.93;;
25988;SDS011;13778;48.236;9.894;2022-08-25T10:08:10;5.68;;;5.18;;
25988;SDS011;13778;48.236;9.894;2022-08-25T10:11:02;5.85;;;5.25;;
25988;SDS011;13778;48.236;9.894;2022-08-25T10:13:59;5.65;;;5.15;;
25988;SDS011;13778;48.236;9.894;2022-08-25T10:16:51;5.97;;;5.40;;
25988;SDS011;13778;48.236;9.894;2022-08-25T10:19:42;8.82;;;5.20;;
25988;SDS011;13778;48.236;9.894;2022-08-25T10:22:33;9.68;;;5.32;;
25988;SDS011;13778;48.236;9.894;2022-08-25T10:25:25;6.95;;;6.00;;
25988;SDS011;13778;48.236;9.894;2022-08-25T10:28:18;7.97;;;5.00;;
25988;SDS011;13778;48.236;9.894;2022-08-25T10:31:13;5.57;;;5.13;;
25988;SDS011;13778;48.236;9.894;2022-08-25T10:34:14;9.50;;;6.35;;
25988;SDS011;13778;48.236;9.894;2022-08-25T10:37:10;6.28;;;5.50;;
25988;SDS011;13778;48.236;9.894;2022-08-25T10:40:06;7.30;;;5.60;;
25988;SDS011;13778;48.236;9.894;2022-08-25T10:43:01;5.22;;;4.75;;
25988;SDS011;13778;48.236;9.894;2022-08-25T10:45:56;5.57;;;5.10;;
25988;SDS011;13778;48.236;9.894;2022-08-25T10:48:49;5.78;;;5.28;;
25988;SDS011;13778;48.236;9.894;2022-08-25T10:51:45;5.75;;;5.22;;
25988;SDS011;13778;48.236;9.894;2022-08-25T10:54:39;5.40;;;4.88;;
25988;SDS011;13778;48.236;9.894;2022-08-25T10:57:33;5.60;;;5.07;;
25988;SDS011;13778;48.236;9.894;2022-08-25T11:00:25;8.77;;;5.57;;
25988;SDS011;13778;48.236;9.894;2022-08-25T11:03:20;6.60;;;5.10;;
25988;SDS011;13778;48.236;9.894;2022-08-25T11:06:16;7.05;;;5.45;;
25988;SDS011;13778;48.236;9.894;2022-08-25T11:09:09;6.30;;;4.82;;
25988;SDS011;13778;48.236;9.894;2022-08-25T11:12:02;6.30;;;5.53;;
25988;SDS011;13778;48.236;9.894;2022-08-25T11:14:54;7.78;;;5.45;;
25988;SDS011;13778;48.236;9.894;2022-08-25T11:17:46;5.65;;;5.15;;
25988;SDS011;13778;48.236;9.894;2022-08-25T11:20:40;5.95;;;5.05;;
25988;SDS011;13778;48.236;9.894;2022-08-25T11:23:32;5.95;;;4.68;;
25988;SDS011;13778;48.236;9.894;2022-08-25T11:26:27;4.75;;;4.30;;
25988;SDS011;13778;48.236;9.894;2022-08-25T11:29:23;5.82;;;5.25;;
25988;SDS011;13778;48.236;9.894;2022-08-25T11:32:16;9.38;;;5.30;;
25988;SDS011;13778;48.236;9.894;2022-08-25T11:35:08;6.63;;;4.82;;
25988;SDS011;13778;48.236;9.894;2022-08-25T11:38:04;5.25;;;4.85;;
25988;SDS011;13778;48.236;9.894;2022-08-25T11:41:03;6.65;;;5.03;;
25988;SDS011;13778;48.236;9.894;2022-08-25T11:44:02;6.30;;;5.20;;
25988;SDS011;13778;48.236;9.894;2022-08-25T11:47:00;6.20;;;4.93;;
25988;SDS011;13778;48.236;9.894;2022-08-25T11:49:52;6.38;;;4.53;;
25988;SDS011;13778;48.236;9.894;2022-08-25T11:52:47;5.13;;;4.63;;
25988;SDS011;13778;48.236;9.894;2022-08-25T11:55:45;5.55;;;5.05;;
25988;SDS011;13778;48.236;9.894;2022-08-25T12:05:00;5.53;;;4.85;;
25988;SDS011;13778;48.236;9.894;2022-08-25T12:08:01;13.82;;;5.82;;
25988;SDS011;13778;48.236;9.894;2022-08-25T12:11:09;5.97;;;5.35;;
25988;SDS011;13778;48.236;9.894;2022-08-25T12:14:07;5.22;;;4.50;;
25988;SDS011;13778;48.236;9.894;2022-08-25T12:17:05;7.90;;;5.38;;
25988;SDS011;13778;48.236;9.894;2022-08-25T12:19:56;5.15;;;4.75;;
25988;SDS011;13778;48.236;9.894;2022-08-25T12:22:55;5.30;;;4.80;;
25988;SDS011;13778;48.236;9.894;2022-08-25T12:25:49;5.38;;;4.88;;
25988;SDS011;13778;48.236;9.894;2022-08-25T12:28:46;5.43;;;4.32;;
25988;SDS011;13778;48.236;9.894;2022-08-25T12:31:42;7.38;;;4.40;;
25988;SDS011;13778;48.236;9.894;2022-08-25T12:34:46;5.32;;;4.82;;
25988;SDS011;13778;48.236;9.894;2022-08-25T12:37:56;5.20;;;4.70;;
25988;SDS011;13778;48.236;9.894;2022-08-25T12:40:55;6.55;;;4.32;;
25988;SDS011;13778;48.236;9.894;2022-08-25T12:43:48;6.32;;;4.93;;
25988;SDS011;13778;48.236;9.894;2022-08-25T12:49:30;5.13;;;4.60;;
25988;SDS011;13778;48.236;9.894;2022-08-25T12:52:21;5.25;;;4.72;;
25988;SDS011;13778;48.236;9.894;2022-08-25T12:55:14;5.78;;;4.50;;
25988;SDS011;13778;48.236;9.894;2022-08-25T12:58:05;5.03;;;4.53;;
25988;SDS011;13778;48.236;9.894;2022-08-25T13:01:02;5.60;;;4.25;;
25988;SDS011;13778;48.236;9.894;2022-08-25T13:07:11;6.90;;;4.85;;
25988;SDS011;13778;48.236;9.894;2022-08-25T13:10:24;5.40;;;4.72;;
25988;SDS011;13778;48.236;9.894;2022-08-25T13:13:19;5.25;;;4.75;;
25988;SDS011;13778;48.236;9.894;2022-08-25T13:16:15;5.93;;;5.00;;
25988;SDS011;13778;48.236;9.894;2022-08-25T13:19:05;6.85;;;5.03;;
25988;SDS011;13778;48.236;9.894;2022-08-25T13:21:56;5.10;;;4.53;;
25988;SDS011;13778;48.236;9.894;2022-08-25T13:24:47;4.40;;;4.00;;
25988;SDS011;13778;48.236;9.894;2022-08-25T13:27:40;5.60;;;4.35;;
25988;SDS011;13778;48.236;9.894;2022-08-25T13:30:32;5.30;;;4.50;;
25988;SDS011;13778;48.236;9.894;2022-08-25T13:33:22;4.93;;;4.47;;
25988;SDS011;13778;48.236;9.894;2022-08-25T13:36:14;5.72;;;4.15;;
25988;SDS011;13778;48.236;9.894;2022-08-25T13:39:26;4.65;;;4.18;;
25988;SDS011;13778;48.236;9.894;2022-08-25T13:42:17;3.95;;;3.65;;
25988;SDS011;13778;48.236;9.894;2022-08-25T13:45:11;5.57;;;4.20;;
25988;SDS011;13778;48.236;9.894;2022-08-25T13:48:03;6.47;;;4.68;;
25988;SDS011;13778;48.236;9.894;2022-08-25T13:50:53;5.28;;;3.90;;
25988;SDS011;13778;48.236;9.894;2022-08-25T13:53:56;4.43;;;4.13;;
25988;SDS011;13778;48.236;9.894;2022-08-25T13:59:37;5.45;;;4.05;;
25988;SDS011;13778;48.236;9.894;2022-08-25T14:02:41;4.40;;;4.00;;
25988;SDS011;13778;48.236;9.894;2022-08-25T14:05:34;4.85;;;4.40;;
25988;SDS011;13778;48.236;9.894;2022-08-25T14:08:28;4.82;;;4.43;;
25988;SDS011;13778;48.236;9.894;2022-08-25T14:11:27;4.35;;;4.05;;
25988;SDS011;13778;48.236;9.894;2022-08-25T14:14:29;4.93;;;4.10;;
25988;SDS011;13778;48.236;9.894;2022-08-25T14:17:20;4.22;;;3.88;;
25988;SDS011;13778;48.236;9.894;2022-08-25T14:20:16;4.40;;;4.00;;
25988;SDS011;13778;48.236;9.894;2022-08-25T14:23:09;6.38;;;3.85;;
25988;SDS011;13778;48.236;9.894;2022-08-25T14:26:01;3.72;;;3.42;;
25988;SDS011;13778;48.236;9.894;2022-08-25T14:28:52;6.47;;;4.07;;
25988;SDS011;13778;48.236;9.894;2022-08-25T14:31:43;4.47;;;3.67;;
25988;SDS011;13778;48.236;9.894;2022-08-25T14:34:34;3.85;;;3.47;;
25988;SDS011;13778;48.236;9.894;2022-08-25T14:37:27;4.25;;;3.85;;
25988;SDS011;13778;48.236;9.894;2022-08-25T14:40:17;3.80;;;3.50;;
25988;SDS011;13778;48.236;9.894;2022-08-25T14:43:08;4.82;;;3.63;;
25988;SDS011;13778;48.236;9.894;2022-08-25T14:45:58;6.60;;;3.53;;
25988;SDS011;13778;48.236;9.894;2022-08-25T14:48:50;3.97;;;3.57;;
25988;SDS011;13778;48.236;9.894;2022-08-25T14:51:43;5.82;;;3.13;;
25988;SDS011;13778;48.236;9.894;2022-08-25T14:54:35;5.88;;;3.72;;
25988;SDS011;13778;48.236;9.894;2022-08-25T14:57:26;3.80;;;3.50;;
25988;SDS011;13778;48.236;9.894;2022-08-25T15:00:17;3.60;;;3.30;;
25988;SDS011;13778;48.236;9.894;2022-08-25T15:03:08;7.65;;;3.38;;
25988;SDS011;13778;48.236;9.894;2022-08-25T15:05:59;4.25;;;3.72;;
25988;SDS011;13778;48.236;9.894;2022-08-25T15:08:50;4.43;;;3.58;;
25988;SDS011;13778;48.236;9.894;2022-08-25T15:12:00;4.10;;;3.20;;
25988;SDS011;13778;48.236;9.894;2022-08-25T15:14:50;3.22;;;3.03;;
25988;SDS011;13778;48.236;9.894;2022-08-25T15:17:41;4.93;;;3.60;;
25988;SDS011;13778;48.236;9.894;2022-08-25T15:20:33;4.78;;;3.03;;
25988;SDS011;13778;48.236;9.894;2022-08-25T15:23:24;9.03;;;4.23;;
25988;SDS011;13778;48.236;9.894;2022-08-25T15:26:14;5.43;;;3.35;;
25988;SDS011;13778;48.236;9.894;2022-08-25T15:29:06;3.30;;;3.00;;
25988;SDS011;13778;48.236;9.894;2022-08-25T15:31:58;5.13;;;3.40;;
25988;SDS011;13778;48.236;9.894;2022-08-25T15:34:48;4.95;;;3.47;;
25988;SDS011;13778;48.236;9.894;2022-08-25T15:37:39;3.08;;;2.63;;
25988;SDS011;13778;48.236;9.894;2022-08-25T15:40:30;3.83;;;3.40;;
25988;SDS011;13778;48.236;9.894;2022-08-25T15:43:20;3.13;;;2.92;;
25988;SDS011;13778;48.236;9.894;2022-08-25T15:46:14;3.47;;;3.17;;
25988;SDS011;13778;48.236;9.894;2022-08-25T15:49:05;4.13;;;3.58;;
25988;SDS011;13778;48.236;9.894;2022-08-25T15:51:55;3.70;;;3.33;;
25988;SDS011;13778;48.236;9.894;2022-08-25T15:54:46;4.30;;;3.35;;
25988;SDS011;13778;48.236;9.894;2022-08-25T15:57:36;4.20;;;3.47;;
25988;SDS011;13778;48.236;9.894;2022-08-25T16:00:27;3.78;;;3.47;;
25988;SDS011;13778;48.236;9.894;2022-08-25T16:03:18;5.10;;;3.00;;
25988;SDS011;13778;48.236;9.894;2022-08-25T16:06:09;3.60;;;3.30;;
25988;SDS011;13778;48.236;9.894;2022-08-25T16:09:00;4.00;;;3.70;;
25988;SDS011;13778;48.236;9.894;2022-08-25T16:11:51;3.95;;;3.60;;
25988;SDS011;13778;48.236;9.894;2022-08-25T16:14:41;3.92;;;3.33;;
25988;SDS011;13778;48.236;9.894;2022-08-25T16:17:32;3.72;;;3.42;;
25988;SDS011;13778;48.236;9.894;2022-08-25T16:20:24;4.32;;;3.63;;
25988;SDS011;13778;48.236;9.894;2022-08-25T16:23:15;3.50;;;3.20;;
25988;SDS011;13778;48.236;9.894;2022-08-25T16:26:06;3.67;;;3.38;;
25988;SDS011;13778;48.236;9.894;2022-08-25T16:28:57;4.10;;;3.10;;
25988;SDS011;13778;48.236;9.894;2022-08-25T16:31:48;3.47;;;3.15;;
25988;SDS011;13778;48.236;9.894;2022-08-25T16:34:39;3.30;;;3.00;;
25988;SDS011;13778;48.236;9.894;2022-08-25T16:37:32;5.07;;;3.15;;
25988;SDS011;13778;48.236;9.894;2022-08-25T16:40:22;3.42;;;3.13;;
25988;SDS011;13778;48.236;9.894;2022-08-25T16:43:14;5.15;;;3.17;;
25988;SDS011;13778;48.236;9.894;2022-08-25T16:46:06;3.83;;;3.50;;
25988;SDS011;13778;48.236;9.894;2022-08-25T16:51:47;4.22;;;3.30;;
25988;SDS011;13778;48.236;9.894;2022-08-25T16:54:39;2.97;;;2.78;;
25988;SDS011;13778;48.236;9.894;2022-08-25T16:57:47;3.80;;;3.08;;
25988;SDS011;13778;48.236;9.894;2022-08-25T17:00:38;3.60;;;3.30;;
25988;SDS011;13778;48.236;9.894;2022-08-25T17:03:28;3.63;;;3.03;;
25988;SDS011;13778;48.236;9.894;2022-08-25T17:06:19;3.35;;;3.05;;
25988;SDS011;13778;48.236;9.894;2022-08-25T17:09:10;5.97;;;3.80;;
25988;SDS011;13778;48.236;9.894;2022-08-25T17:12:03;3.35;;;3.05;;
25988;SDS011;13778;48.236;9.894;2022-08-25T17:14:53;4.43;;;3.85;;
25988;SDS011;13778;48.236;9.894;2022-08-25T17:17:44;3.50;;;3.17;;
25988;SDS011;13778;48.236;9.894;2022-08-25T17:20:34;4.35;;;2.88;;
25988;SDS011;13778;48.236;9.894;2022-08-25T17:23:26;4.07;;;3.05;;
25988;SDS011;13778;48.236;9.894;2022-08-25T17:26:16;3.83;;;3.28;;
25988;SDS011;13778;48.236;9.894;2022-08-25T17:29:09;4.70;;;2.88;;
25988;SDS011;13778;48.236;9.894;2022-08-25T17:32:00;3.53;;;3.20;;
25988;SDS011;13778;48.236;9.894;2022-08-25T17:34:51;3.88;;;3.08;;
25988;SDS011;13778;48.236;9.894;2022-08-25T17:37:42;3.22;;;2.92;;
25988;SDS011;13778;48.236;9.894;2022-08-25T17:40:32;3.47;;;3.20;;
25988;SDS011;13778;48.236;9.894;2022-08-25T17:43:23;3.70;;;3.22;;
25988;SDS011;13778;48.236;9.894;2022-08-25T17:46:15;2.97;;;2.78;;
25988;SDS011;13778;48.236;9.894;2022-08-25T17:49:05;3.45;;;3.15;;
25988;SDS011;13778;48.236;9.894;2022-08-25T17:51:55;3.50;;;3.20;;
25988;SDS011;13778;48.236;9.894;2022-08-25T17:54:46;3.25;;;2.78;;
25988;SDS011;13778;48.236;9.894;2022-08-25T17:57:37;4.03;;;3.33;;